Emerald Coast — WDC9127 — position and weather

sailwx.info

Track history (hours):
 
Tides and Currents Weather Stations Pressure Air Temp Water Temp Dewpoint Dewpoint Depression Visibility Wind Speed Wind Dir Waves Ship Positions

Emerald Coast

Owner: Dann Marine Towing, LC, Chesapeake City, MD. More information available from US FCC via Universal Licensing System and Coast Guard Vessel Documentation Center.

Last reported at 2017-Jun-24 18:30 UTC. Time now 2017-Jun-24 18:47 UTC.
Position N 40°38' W 074°07'.

Length 24 m; draft 3 m.

Type: Tug. MMSI: 367097920.

Date/timePositionNaut miles runAvg speedWind from/ knotsBaromVisibWave heightAir tempDewpointWater temp
2017-Jun-24 18:30N 40°38' W 074°07'0 0.0
2017-Jun-24 17:59N 40°38' W 074°07'0 0.0
2017-Jun-24 17:28N 40°38' W 074°07'0 0.0
2017-Jun-24 17:00N 40°38' W 074°07'0 0.0
2017-Jun-24 15:01N 40°38' W 074°07'0 0.0
2017-Jun-24 14:56N 40°38' W 074°07'0 0.0
2017-Jun-24 11:02N 40°39' W 074°07'0 6.8
2017-Jun-24 11:01N 40°39' W 074°07'4 8.6
2017-Jun-24 10:31N 40°40' W 074°02'1 2.2
2017-Jun-24 10:01N 40°40' W 074°00'0 0.0
2017-Jun-24 09:31N 40°40' W 074°00'0 0.0
2017-Jun-24 09:01N 40°40' W 074°00'0 0.0
2017-Jun-24 08:31N 40°40' W 074°00'2 4.9
2017-Jun-24 08:01N 40°40' W 074°03'0 0.8
2017-Jun-24 07:31N 40°40' W 074°03'2 4.7
2017-Jun-24 07:01N 40°41' W 074°00'1 2.5
2017-Jun-24 06:31N 40°41' W 074°02'2 3.2
2017-Jun-24 06:01N 40°40' W 074°03'0 0.8
2017-Jun-24 05:31N 40°40' W 074°03'3 6.1
2017-Jun-24 05:01N 40°43' W 074°01'3 6.1
2017-Jun-24 04:31N 40°46' W 074°01'3 5.3
2017-Jun-24 04:00N 40°48' W 073°59'2 4.5
2017-Jun-24 03:31N 40°50' W 073°58'2 3.6
2017-Jun-24 03:01N 40°52' W 073°57'2 3.0
2017-Jun-24 02:30N 40°53' W 073°56'1 2.5
2017-Jun-24 02:00N 40°54' W 073°55'1 2.6
2017-Jun-24 01:30N 40°56' W 073°55'1 2.5
2017-Jun-24 00:59N 40°57' W 073°54'1 0.2
2017-Jun-23 17:02N 40°58' W 073°54'1 5.3
2017-Jun-23 16:54N 40°57' W 073°54'2 5.4
2017-Jun-23 16:30N 40°55' W 073°55'3 5.7
2017-Jun-23 16:01N 40°53' W 073°56'3 5.9
2017-Jun-23 15:30N 40°50' W 073°58'3 6.3
2017-Jun-23 15:01N 40°47' W 073°60'7 6.6
2017-Jun-23 14:01N 40°41' W 074°02'1 1.8
2017-Jun-23 13:31N 40°41' W 074°03'2 3.6
2017-Jun-23 13:01N 40°40' W 074°01'0 0.0
2017-Jun-23 12:31N 40°40' W 074°01'2 3.8
2017-Jun-23 12:01N 40°40' W 074°03'0 0.1
2017-Jun-23 11:31N 40°40' W 074°03'1 2.3
2017-Jun-23 11:01N 40°41' W 074°02'2 3.2
2017-Jun-23 10:31N 40°41' W 074°00'2 3.8
2017-Jun-23 10:01N 40°40' W 074°02'1 1.6
2017-Jun-23 09:31N 40°40' W 074°03'2 3.4
2017-Jun-23 09:01N 40°41' W 074°01'1 2.1
2017-Jun-23 08:31N 40°41' W 074°00'1 3.0
2017-Jun-23 08:01N 40°40' W 074°01'1 1.4
2017-Jun-23 07:31N 40°40' W 074°02'1 2.9
2017-Jun-23 07:01N 40°40' W 074°03'1 1.1
2017-Jun-23 06:31N 40°40' W 074°03'1 2.3
2017-Jun-23 06:00N 40°40' W 074°04'4 7.3
2017-Jun-23 05:29N 40°39' W 074°09'3 5.3
2017-Jun-23 05:00N 40°38' W 074°12'1 2.3
2017-Jun-23 04:26N 40°36' W 074°12'0 0.1
2017-Jun-23 03:59N 40°36' W 074°12'2 3.6
2017-Jun-23 03:30N 40°38' W 074°12'4 7.3
2017-Jun-23 03:00N 40°39' W 074°07'1 2.8
2017-Jun-23 02:31N 40°39' W 074°05'0 0.0
2017-Jun-23 02:01N 40°39' W 074°05'0 0.0
2017-Jun-23 01:30N 40°39' W 074°05'0 0.0
2017-Jun-23 01:00N 40°39' W 074°05'2 4.4
2017-Jun-23 00:31N 40°39' W 074°03'2 4.1
2017-Jun-23 00:01N 40°40' W 074°00'0 0.0
2017-Jun-22 23:30N 40°40' W 074°00'1 1.2
2017-Jun-22 23:01N 40°41' W 073°60'0 1.0
2017-Jun-22 22:31N 40°40' W 073°60'1 1.5
2017-Jun-22 22:01N 40°40' W 074°01'0 0.5
2017-Jun-22 21:31N 40°40' W 074°01'2 3.9
2017-Jun-22 21:01N 40°40' W 074°03'2 3.2
2017-Jun-22 20:31N 40°39' W 074°05'0 0.1
2017-Jun-22 20:01N 40°39' W 074°05'0 0.7
2017-Jun-22 19:30N 40°39' W 074°06'0 0.5
2017-Jun-22 19:01N 40°39' W 074°05'2 3.5
2017-Jun-22 18:31N 40°40' W 074°03'0 0.0
2017-Jun-22 18:00N 40°40' W 074°03'2 3.6
2017-Jun-22 17:30N 40°40' W 074°01'1 1.9
2017-Jun-22 17:01N 40°40' W 073°60'2 3.1
2017-Jun-22 16:31N 40°40' W 074°02'1 1.8
2017-Jun-22 16:00N 40°40' W 074°03'0 0.2
2017-Jun-22 15:31N 40°40' W 074°03'0 1.0
2017-Jun-22 15:01N 40°40' W 074°03'3 2.6
2017-Jun-22 14:01N 40°40' W 073°60'2 3.5
2017-Jun-22 13:31N 40°40' W 074°02'0 0.4
2017-Jun-22 13:01N 40°40' W 074°02'2 3.8
2017-Jun-22 12:31N 40°40' W 073°60'0 0.2
2017-Jun-22 12:01N 40°40' W 073°60'0 0.6
2017-Jun-22 11:31N 40°41' W 073°60'0 0.4
2017-Jun-22 11:01N 40°40' W 073°60'0 0.0
2017-Jun-22 10:31N 40°40' W 073°60'0 0.9
2017-Jun-22 10:00N 40°40' W 074°00'2 4.8
2017-Jun-22 09:31N 40°40' W 074°03'0 0.3
2017-Jun-22 09:01N 40°40' W 074°03'2 3.4
2017-Jun-22 08:31N 40°40' W 074°01'1 1.9
2017-Jun-22 08:01N 40°40' W 073°60'1 2.2
2017-Jun-22 07:31N 40°41' W 074°01'1 1.2
2017-Jun-22 07:01N 40°41' W 074°00'1 3.0
2017-Jun-22 06:31N 40°40' W 074°02'1 2.2
2017-Jun-22 06:01N 40°40' W 074°03'0 0.4
2017-Jun-22 05:31N 40°40' W 074°03'1 1.1
2017-Jun-22 05:01N 40°40' W 074°03'2 4.6
2017-Jun-22 04:31N 40°41' W 074°00'2 4.0
2017-Jun-22 04:00N 40°41' W 074°03'1 1.8
2017-Jun-22 03:30N 40°40' W 074°03'0 0.3
2017-Jun-22 03:01N 40°40' W 074°03'3 5.6
2017-Jun-22 02:31N 40°42' W 074°02'3 6.1
2017-Jun-22 02:01N 40°45' W 074°01'3 5.2
2017-Jun-22 01:30N 40°48' W 073°59'2 4.3
2017-Jun-22 01:00N 40°50' W 073°58'2 4.0
2017-Jun-22 00:30N 40°51' W 073°57'1 2.9
2017-Jun-22 00:00N 40°53' W 073°56'1 2.9
2017-Jun-21 23:30N 40°54' W 073°55'2 3.0
2017-Jun-21 22:58N 40°56' W 073°55'1 3.2
2017-Jun-21 22:30N 40°57' W 073°54'1 0.1
2017-Jun-21 15:32N 40°58' W 073°54'0 5.0
2017-Jun-21 15:30N 40°57' W 073°54'2 4.8
2017-Jun-21 15:00N 40°55' W 073°55'5 5.3
2017-Jun-21 14:01N 40°50' W 073°57'3 5.7
2017-Jun-21 13:31N 40°48' W 073°59'3 6.1
2017-Jun-21 13:01N 40°45' W 074°01'3 6.5
2017-Jun-21 12:31N 40°42' W 074°02'2 3.4
2017-Jun-21 12:01N 40°40' W 074°03'1 2.5
2017-Jun-21 11:31N 40°40' W 074°01'2 3.0
2017-Jun-21 11:01N 40°41' W 074°00'1 2.5
2017-Jun-21 10:31N 40°40' W 074°01'0 0.8
2017-Jun-21 10:01N 40°40' W 074°01'1 2.5
2017-Jun-21 09:31N 40°40' W 074°03'3 5.1
2017-Jun-21 09:01N 40°41' W 074°00'2 3.7
2017-Jun-21 08:30N 40°40' W 074°02'4 8.0
2017-Jun-21 08:00N 40°39' W 074°07'4 7.6
2017-Jun-21 07:30N 40°38' W 074°12'2 0.5
2017-Jun-21 04:18N 40°36' W 074°12'0 0.9
2017-Jun-21 04:00N 40°36' W 074°12'1 2.8
2017-Jun-21 03:30N 40°37' W 074°12'2 4.9
2017-Jun-21 03:01N 40°39' W 074°10'2 4.1
2017-Jun-21 02:30N 40°39' W 074°07'2 3.9
2017-Jun-21 02:01N 40°39' W 074°04'1 2.0
2017-Jun-21 01:31N 40°40' W 074°03'2 3.8
2017-Jun-21 01:00N 40°40' W 074°01'1 2.8
2017-Jun-21 00:31N 40°40' W 074°03'1 1.0
2017-Jun-21 00:01N 40°40' W 074°03'1 2.0
2017-Jun-20 23:31N 40°39' W 074°04'4 8.6
2017-Jun-20 23:00N 40°39' W 074°10'3 2.7
2017-Jun-20 22:00N 40°37' W 074°12'3 6.4
2017-Jun-20 21:30N 40°39' W 074°09'4 8.5
2017-Jun-20 21:01N 40°40' W 074°04'1 2.5
2017-Jun-20 20:30N 40°41' W 074°02'1 1.1
2017-Jun-20 20:01N 40°40' W 074°02'1 1.1
2017-Jun-20 19:31N 40°40' W 074°02'1 1.6
2017-Jun-20 19:01N 40°40' W 074°01'1 1.9
2017-Jun-20 18:30N 40°40' W 074°00'2 5.0
2017-Jun-20 18:01N 40°40' W 074°03'0 0.2
2017-Jun-20 17:31N 40°40' W 074°03'3 5.4
2017-Jun-20 17:01N 40°42' W 074°02'3 6.7
2017-Jun-20 16:31N 40°46' W 074°01'3 6.7
2017-Jun-20 16:01N 40°48' W 073°59'3 6.7
2017-Jun-20 15:30N 40°52' W 073°57'3 6.3
2017-Jun-20 15:01N 40°54' W 073°55'3 0.4
2017-Jun-20 07:13N 40°57' W 073°54'2 5.9
2017-Jun-20 06:56N 40°55' W 073°55'2 5.5
2017-Jun-20 06:30N 40°53' W 073°56'2 5.0
2017-Jun-20 06:01N 40°51' W 073°57'2 4.5
2017-Jun-20 05:30N 40°49' W 073°58'2 3.9
2017-Jun-20 05:00N 40°47' W 073°59'2 3.6
2017-Jun-20 04:31N 40°46' W 074°01'2 4.0
2017-Jun-20 04:01N 40°44' W 074°01'2 3.8
2017-Jun-20 03:31N 40°42' W 074°02'2 3.3
2017-Jun-20 03:01N 40°40' W 074°03'2 3.3
2017-Jun-20 02:31N 40°41' W 074°01'1 1.5
2017-Jun-20 02:01N 40°41' W 074°00'1 1.6
2017-Jun-20 01:31N 40°41' W 074°01'1 2.6
2017-Jun-20 01:01N 40°40' W 074°03'1 1.3
2017-Jun-20 00:31N 40°40' W 074°03'0 0.1
2017-Jun-20 00:01N 40°40' W 074°03'3 5.3
2017-Jun-19 23:31N 40°41' W 074°01'0 0.4
2017-Jun-19 23:01N 40°41' W 074°00'0 0.0
2017-Jun-19 22:30N 40°41' W 074°00'0 0.0
2017-Jun-19 22:01N 40°41' W 074°00'0 0.0
2017-Jun-19 21:31N 40°41' W 074°00'1 3.0
2017-Jun-19 21:01N 40°40' W 074°01'1 1.1
2017-Jun-19 20:31N 40°40' W 074°02'1 1.9
2017-Jun-19 20:01N 40°40' W 074°03'1 2.9
2017-Jun-19 19:31N 40°40' W 074°01'1 3.0
2017-Jun-19 19:01N 40°40' W 074°03'1 1.0
2017-Jun-19 18:31N 40°40' W 074°03'3 5.5
2017-Jun-19 18:00N 40°39' W 074°06'3 5.0
2017-Jun-19 17:29N 40°39' W 074°09'3 6.2
2017-Jun-19 17:00N 40°37' W 074°12'0 0.7
2017-Jun-19 16:24N 40°36' W 074°12'1 1.5
2017-Jun-19 16:00N 40°37' W 074°12'3 5.4
2017-Jun-19 15:31N 40°39' W 074°10'3 5.9
2017-Jun-19 15:01N 40°39' W 074°06'2 4.7
2017-Jun-19 14:31N 40°40' W 074°03'3 2.6
2017-Jun-19 13:31N 40°40' W 074°00'0 0.3
2017-Jun-19 13:01N 40°40' W 074°00'0 0.0
2017-Jun-19 12:30N 40°40' W 074°00'0 0.0
2017-Jun-19 12:01N 40°40' W 074°00'0 0.0
2017-Jun-19 11:31N 40°40' W 074°00'0 0.0
2017-Jun-19 11:01N 40°40' W 074°00'0 0.0
2017-Jun-19 10:31N 40°40' W 074°00'0 0.0
2017-Jun-19 10:01N 40°40' W 074°00'0 0.0
2017-Jun-19 09:30N 40°40' W 074°00'0 0.0
2017-Jun-19 09:01N 40°40' W 074°00'0 0.0
2017-Jun-19 08:31N 40°40' W 074°00'0 0.0
2017-Jun-19 08:01N 40°40' W 074°00'0 0.0
2017-Jun-19 07:31N 40°40' W 074°00'0 0.0
2017-Jun-19 07:01N 40°40' W 074°00'0 0.0
2017-Jun-19 06:31N 40°40' W 074°00'0 0.0
2017-Jun-19 06:01N 40°40' W 074°00'0 0.0
2017-Jun-19 05:31N 40°40' W 074°00'0 0.0
2017-Jun-19 05:01N 40°40' W 074°00'0 0.0
2017-Jun-19 04:31N 40°40' W 074°00'0 0.0
2017-Jun-19 04:01N 40°40' W 074°00'0 0.0
2017-Jun-19 03:31N 40°40' W 074°00'0 0.0
2017-Jun-19 03:01N 40°40' W 074°00'0 0.0
2017-Jun-19 02:31N 40°40' W 074°00'0 0.0
2017-Jun-19 02:01N 40°40' W 074°00'0 0.0
2017-Jun-19 01:31N 40°40' W 074°00'0 0.0
2017-Jun-19 01:00N 40°40' W 074°00'0 0.0
2017-Jun-19 00:31N 40°40' W 074°00'0 0.0
2017-Jun-19 00:01N 40°40' W 074°00'0 0.0
2017-Jun-18 23:31N 40°40' W 074°00'0 0.0
2017-Jun-18 23:00N 40°40' W 074°00'0 0.0
2017-Jun-18 22:31N 40°40' W 074°00'0 0.0
2017-Jun-18 22:00N 40°40' W 074°00'0 0.0
2017-Jun-18 21:30N 40°40' W 074°00'0 0.0
2017-Jun-18 21:00N 40°40' W 074°00'0 0.0
2017-Jun-18 20:31N 40°40' W 074°00'0 0.0
2017-Jun-18 20:01N 40°40' W 074°00'0 0.0
2017-Jun-18 19:31N 40°40' W 074°00'0 0.0
2017-Jun-18 19:01N 40°40' W 074°00'0 0.0
2017-Jun-18 18:31N 40°40' W 074°00'0 0.0
2017-Jun-18 18:01N 40°40' W 074°00'0 0.0
2017-Jun-18 17:31N 40°40' W 074°00'0 0.0
2017-Jun-18 17:01N 40°40' W 074°00'0 0.0
2017-Jun-18 16:31N 40°40' W 074°00'0 0.0
2017-Jun-18 16:01N 40°40' W 074°00'0 0.3
2017-Jun-18 15:31N 40°40' W 074°00'0 0.0
2017-Jun-18 15:01N 40°40' W 074°00'0 0.0
2017-Jun-18 14:01N 40°40' W 074°00'0 0.0
2017-Jun-18 13:31N 40°40' W 074°00'0 0.0
2017-Jun-18 13:01N 40°40' W 074°00'0 0.0
2017-Jun-18 12:31N 40°40' W 074°00'0 0.0
2017-Jun-18 12:01N 40°40' W 074°00'0 0.0
2017-Jun-18 11:31N 40°40' W 074°00'0 0.0
2017-Jun-18 11:01N 40°40' W 074°00'0 0.0
2017-Jun-18 10:31N 40°40' W 074°00'0 0.0
2017-Jun-18 10:00N 40°40' W 074°00'0 0.0
2017-Jun-18 09:30N 40°40' W 074°00'0 0.0
2017-Jun-18 09:01N 40°40' W 074°00'0 0.0
2017-Jun-18 08:31N 40°40' W 074°00'0 0.0
2017-Jun-18 08:01N 40°40' W 074°00'0 0.0
2017-Jun-18 07:31N 40°40' W 074°00'0 0.0
2017-Jun-18 07:01N 40°40' W 074°00'0 0.0
2017-Jun-18 06:31N 40°40' W 074°00'0 0.0
2017-Jun-18 06:00N 40°40' W 074°00'0 0.0
2017-Jun-18 05:31N 40°40' W 074°00'0 0.0
2017-Jun-18 05:01N 40°40' W 074°00'0 0.0
2017-Jun-18 04:31N 40°40' W 074°00'0 0.0
2017-Jun-18 04:01N 40°40' W 074°00'0 0.0
2017-Jun-18 03:31N 40°40' W 074°00'0 0.0
2017-Jun-18 03:01N 40°40' W 074°00'0 0.0
2017-Jun-18 02:30N 40°40' W 074°00'0 0.0
2017-Jun-18 02:01N 40°40' W 074°00'0 0.0
2017-Jun-18 01:31N 40°40' W 074°00'0 0.0
2017-Jun-18 01:01N 40°40' W 074°00'0 0.0
2017-Jun-18 00:31N 40°40' W 074°00'0 0.0
2017-Jun-18 00:01N 40°40' W 074°00'0 0.0
2017-Jun-17 23:31N 40°40' W 074°00'0 0.0
2017-Jun-17 23:01N 40°40' W 074°00'0 0.0
2017-Jun-17 22:31N 40°40' W 074°00'0 0.0
2017-Jun-17 22:01N 40°40' W 074°00'0 0.0
2017-Jun-17 21:31N 40°40' W 074°00'0 0.0
2017-Jun-17 21:01N 40°40' W 074°00'0 0.0
2017-Jun-17 20:31N 40°40' W 074°00'0 0.0
2017-Jun-17 20:01N 40°40' W 074°00'0 0.0
2017-Jun-17 19:31N 40°40' W 074°00'0 0.0
2017-Jun-17 19:01N 40°40' W 074°00'0 0.0
2017-Jun-17 18:31N 40°40' W 074°00'0 0.0
2017-Jun-17 18:01N 40°40' W 074°00'0 0.0
2017-Jun-17 17:31N 40°40' W 074°00'0 0.0
2017-Jun-17 17:00N 40°40' W 074°00'0 0.0
2017-Jun-17 16:31N 40°40' W 074°00'0 0.0
2017-Jun-17 16:01N 40°40' W 074°00'0 0.0
2017-Jun-17 15:31N 40°40' W 074°00'0 0.0
2017-Jun-17 15:01N 40°40' W 074°00'0 0.0
2017-Jun-17 14:31N 40°40' W 074°00'0 0.0
2017-Jun-17 13:31N 40°40' W 074°00'0 0.0
2017-Jun-17 13:01N 40°40' W 074°00'1 1.9
2017-Jun-17 12:31N 40°40' W 074°01'5 9.1
2017-Jun-17 12:01N 40°45' W 074°01'2 3.3
2017-Jun-17 11:30N 40°46' W 073°60'0 0.3
2017-Jun-17 11:01N 40°46' W 074°00'0 0.2
2017-Jun-17 10:31N 40°46' W 074°00'2 4.0
2017-Jun-17 10:01N 40°44' W 074°01'3 5.8
2017-Jun-17 09:31N 40°41' W 074°02'2 3.5
2017-Jun-17 09:01N 40°40' W 074°00'0 0.1
2017-Jun-17 08:31N 40°40' W 074°00'0 0.0
2017-Jun-17 08:01N 40°40' W 074°00'0 0.0
2017-Jun-17 07:31N 40°40' W 074°00'0 0.0
2017-Jun-17 07:01N 40°40' W 074°00'0 0.0
2017-Jun-17 06:31N 40°40' W 074°00'0 0.0
2017-Jun-17 06:00N 40°40' W 074°00'0 0.0
2017-Jun-17 05:31N 40°40' W 074°00'0 0.0
2017-Jun-17 05:01N 40°40' W 074°00'0 0.0
2017-Jun-17 04:31N 40°40' W 074°00'0 0.0
2017-Jun-17 04:01N 40°40' W 074°00'0 0.0
2017-Jun-17 03:31N 40°40' W 074°00'0 0.0
2017-Jun-17 03:00N 40°40' W 074°00'0 0.0
2017-Jun-17 02:31N 40°40' W 074°00'0 0.0
2017-Jun-17 02:01N 40°40' W 074°00'0 0.0
2017-Jun-17 01:30N 40°40' W 074°00'0 0.0
2017-Jun-17 01:01N 40°40' W 074°00'0 0.0
2017-Jun-17 00:31N 40°40' W 074°00'0 0.0
2017-Jun-17 00:01N 40°40' W 074°00'0 0.0
2017-Jun-16 23:31N 40°40' W 074°00'0 0.0
2017-Jun-16 23:01N 40°40' W 074°00'0 0.0
2017-Jun-16 22:31N 40°40' W 074°00'0 0.0
2017-Jun-16 22:01N 40°40' W 074°00'0 0.0
2017-Jun-16 21:31N 40°40' W 074°00'0 0.0
2017-Jun-16 21:01N 40°40' W 074°00'0 0.0
2017-Jun-16 20:31N 40°40' W 074°00'0 0.0
2017-Jun-16 20:01N 40°40' W 074°00'0 0.0
2017-Jun-16 19:31N 40°40' W 074°00'0 0.0
2017-Jun-16 19:01N 40°40' W 074°00'0 0.0
2017-Jun-16 18:30N 40°40' W 074°00'0 0.0
2017-Jun-16 18:01N 40°40' W 074°00'0 0.2
2017-Jun-16 17:30N 40°40' W 074°00'0 0.0
2017-Jun-16 17:01N 40°40' W 074°00'0 0.0
2017-Jun-16 16:31N 40°40' W 074°00'2 4.2
2017-Jun-16 16:01N 40°42' W 074°00'3 5.4
2017-Jun-16 15:31N 40°44' W 073°58'2 2.9
2017-Jun-16 15:00N 40°46' W 073°57'0 0.1
2017-Jun-16 14:31N 40°46' W 073°57'0 0.1
2017-Jun-16 13:30N 40°46' W 073°57'0 0.0
2017-Jun-16 13:00N 40°46' W 073°57'0 0.0
2017-Jun-16 12:30N 40°46' W 073°57'0 0.0
2017-Jun-16 12:01N 40°46' W 073°57'3 6.1
2017-Jun-16 11:31N 40°43' W 073°58'3 5.5
2017-Jun-16 11:01N 40°41' W 074°01'1 2.2
2017-Jun-16 10:31N 40°40' W 074°00'0 0.0
2017-Jun-16 10:01N 40°40' W 074°00'0 0.0
2017-Jun-16 09:31N 40°40' W 074°00'0 0.0
2017-Jun-16 09:01N 40°40' W 074°00'0 0.0
2017-Jun-16 08:30N 40°40' W 074°00'0 0.0
2017-Jun-16 08:01N 40°40' W 074°00'0 0.0
2017-Jun-16 07:31N 40°40' W 074°00'0 0.0
2017-Jun-16 07:01N 40°40' W 074°00'0 0.0
2017-Jun-16 06:31N 40°40' W 074°00'0 0.0
2017-Jun-16 06:01N 40°40' W 074°00'0 0.0
2017-Jun-16 05:31N 40°40' W 074°00'0 0.0
2017-Jun-16 05:01N 40°40' W 074°00'0 0.0
2017-Jun-16 04:31N 40°40' W 074°00'0 0.0
2017-Jun-16 04:01N 40°40' W 074°00'0 0.0
2017-Jun-16 03:31N 40°40' W 074°00'0 0.0
2017-Jun-16 03:01N 40°40' W 074°00'0 0.0
2017-Jun-16 02:31N 40°40' W 074°00'0 0.0
2017-Jun-16 02:01N 40°40' W 074°00'0 0.0
2017-Jun-16 01:31N 40°40' W 074°00'0 0.0
2017-Jun-16 01:01N 40°40' W 074°00'0 0.0
2017-Jun-16 00:31N 40°40' W 074°00'0 0.0
2017-Jun-16 00:01N 40°40' W 074°00'0 0.0
2017-Jun-15 23:31N 40°40' W 074°00'0 0.0
2017-Jun-15 23:01N 40°40' W 074°00'0 0.0
2017-Jun-15 22:31N 40°40' W 074°00'0 0.0
2017-Jun-15 22:00N 40°40' W 074°00'0 0.0
2017-Jun-15 21:31N 40°40' W 074°00'0 0.0
2017-Jun-15 21:01N 40°40' W 074°00'0 0.0
2017-Jun-15 20:31N 40°40' W 074°00'0 0.0
2017-Jun-15 20:01N 40°40' W 074°00'0 0.0
2017-Jun-15 19:31N 40°40' W 074°00'0 0.0
2017-Jun-15 19:01N 40°40' W 074°00'0 0.0
2017-Jun-15 18:31N 40°40' W 074°00'0 0.0
2017-Jun-15 18:00N 40°40' W 074°00'0 0.0
2017-Jun-15 17:31N 40°40' W 074°00'0 0.0
2017-Jun-15 17:01N 40°40' W 074°00'0 0.0
2017-Jun-15 16:31N 40°40' W 074°00'0 0.0
2017-Jun-15 16:00N 40°40' W 074°00'0 0.0
2017-Jun-15 15:30N 40°40' W 074°00'0 0.0
2017-Jun-15 15:01N 40°40' W 074°00'0 0.0
2017-Jun-15 14:00N 40°40' W 074°00'0 0.0
2017-Jun-15 13:30N 40°40' W 074°00'0 0.0
2017-Jun-15 13:00N 40°40' W 074°00'0 0.0
2017-Jun-15 12:31N 40°40' W 074°00'0 0.7
2017-Jun-15 12:01N 40°40' W 074°00'1 2.2
2017-Jun-15 11:30N 40°41' W 074°01'0 0.9
2017-Jun-15 11:00N 40°41' W 074°01'1 2.4
2017-Jun-15 10:30N 40°40' W 074°00'0 0.0
2017-Jun-15 10:00N 40°40' W 074°00'0 0.0
2017-Jun-15 09:30N 40°40' W 074°00'0 0.0
2017-Jun-15 09:00N 40°40' W 074°00'0 0.0
2017-Jun-15 08:30N 40°40' W 074°00'0 0.0
2017-Jun-15 07:43N 40°40' W 074°00'0 0.1
2017-Jun-15 07:30N 40°40' W 073°60'0 0.0
2017-Jun-15 07:00N 40°40' W 074°00'0 0.0
2017-Jun-15 06:30N 40°40' W 074°00'0 0.0
2017-Jun-15 06:01N 40°40' W 074°00'0 0.0
2017-Jun-15 05:30N 40°40' W 074°00'0 0.0
2017-Jun-15 05:01N 40°40' W 074°00'0 0.0
2017-Jun-15 04:30N 40°40' W 074°00'0 0.0
2017-Jun-15 04:01N 40°40' W 074°00'0 0.0
2017-Jun-15 03:26N 40°40' W 074°00'0 0.0
2017-Jun-15 03:00N 40°40' W 074°00'0 0.0
2017-Jun-15 02:30N 40°40' W 074°00'0 0.0
2017-Jun-15 02:00N 40°40' W 074°00'0 0.0
2017-Jun-15 01:30N 40°40' W 074°00'0 0.0
2017-Jun-15 01:01N 40°40' W 074°00'0 0.0
2017-Jun-15 00:30N 40°40' W 074°00'0 0.0
2017-Jun-15 00:01N 40°40' W 074°00'0 0.0
2017-Jun-14 23:31N 40°40' W 074°00'0 0.0
2017-Jun-14 22:57N 40°40' W 074°00'0 0.0
2017-Jun-14 22:30N 40°40' W 074°00'1 1.4
2017-Jun-14 22:00N 40°40' W 074°01'4 7.5
2017-Jun-14 21:31N 40°39' W 074°06'1 2.6
2017-Jun-14 21:01N 40°38' W 074°07'0 0.0
2017-Jun-14 20:30N 40°38' W 074°07'0 0.0
2017-Jun-14 20:00N 40°38' W 074°07'0 0.0
2017-Jun-14 19:30N 40°38' W 074°07'0 0.0
2017-Jun-14 18:58N 40°38' W 074°07'0 0.0
2017-Jun-14 18:30N 40°38' W 074°07'  
Track history (hours):
 
Tides and Currents Weather Stations Pressure Air Temp Water Temp Dewpoint Dewpoint Depression Visibility Wind Speed Wind Dir Waves Ship Positions

Emerald Coast

Owner: Dann Marine Towing, LC, Chesapeake City, MD. More information available from US FCC via Universal Licensing System and Coast Guard Vessel Documentation Center.

Last reported at 2017-Jun-24 18:30 UTC. Time now 2017-Jun-24 18:47 UTC.
Position N 40°38' W 074°07'.

Length 24 m; draft 3 m.

Type: Tug. MMSI: 367097920.

Date/timePositionNaut miles runAvg speedWind from/ knotsBaromVisibWave heightAir tempDewpointWater temp
2017-Jun-24 18:30N 40°38' W 074°07'0 0.0
2017-Jun-24 17:59N 40°38' W 074°07'0 0.0
2017-Jun-24 17:28N 40°38' W 074°07'0 0.0
2017-Jun-24 17:00N 40°38' W 074°07'0 0.0
2017-Jun-24 15:01N 40°38' W 074°07'0 0.0
2017-Jun-24 14:56N 40°38' W 074°07'0 0.0
2017-Jun-24 11:02N 40°39' W 074°07'0 6.8
2017-Jun-24 11:01N 40°39' W 074°07'4 8.6
2017-Jun-24 10:31N 40°40' W 074°02'1 2.2
2017-Jun-24 10:01N 40°40' W 074°00'0 0.0
2017-Jun-24 09:31N 40°40' W 074°00'0 0.0
2017-Jun-24 09:01N 40°40' W 074°00'0 0.0
2017-Jun-24 08:31N 40°40' W 074°00'2 4.9
2017-Jun-24 08:01N 40°40' W 074°03'0 0.8
2017-Jun-24 07:31N 40°40' W 074°03'2 4.7
2017-Jun-24 07:01N 40°41' W 074°00'1 2.5
2017-Jun-24 06:31N 40°41' W 074°02'2 3.2
2017-Jun-24 06:01N 40°40' W 074°03'0 0.8
2017-Jun-24 05:31N 40°40' W 074°03'3 6.1
2017-Jun-24 05:01N 40°43' W 074°01'3 6.1
2017-Jun-24 04:31N 40°46' W 074°01'3 5.3
2017-Jun-24 04:00N 40°48' W 073°59'2 4.5
2017-Jun-24 03:31N 40°50' W 073°58'2 3.6
2017-Jun-24 03:01N 40°52' W 073°57'2 3.0
2017-Jun-24 02:30N 40°53' W 073°56'1 2.5
2017-Jun-24 02:00N 40°54' W 073°55'1 2.6
2017-Jun-24 01:30N 40°56' W 073°55'1 2.5
2017-Jun-24 00:59N 40°57' W 073°54'1 0.2
2017-Jun-23 17:02N 40°58' W 073°54'1 5.3
2017-Jun-23 16:54N 40°57' W 073°54'2 5.4
2017-Jun-23 16:30N 40°55' W 073°55'3 5.7
2017-Jun-23 16:01N 40°53' W 073°56'3 5.9
2017-Jun-23 15:30N 40°50' W 073°58'3 6.3
2017-Jun-23 15:01N 40°47' W 073°60'7 6.6
2017-Jun-23 14:01N 40°41' W 074°02'1 1.8
2017-Jun-23 13:31N 40°41' W 074°03'2 3.6
2017-Jun-23 13:01N 40°40' W 074°01'0 0.0
2017-Jun-23 12:31N 40°40' W 074°01'2 3.8
2017-Jun-23 12:01N 40°40' W 074°03'0 0.1
2017-Jun-23 11:31N 40°40' W 074°03'1 2.3
2017-Jun-23 11:01N 40°41' W 074°02'2 3.2
2017-Jun-23 10:31N 40°41' W 074°00'2 3.8
2017-Jun-23 10:01N 40°40' W 074°02'1 1.6
2017-Jun-23 09:31N 40°40' W 074°03'2 3.4
2017-Jun-23 09:01N 40°41' W 074°01'1 2.1
2017-Jun-23 08:31N 40°41' W 074°00'1 3.0
2017-Jun-23 08:01N 40°40' W 074°01'1 1.4
2017-Jun-23 07:31N 40°40' W 074°02'1 2.9
2017-Jun-23 07:01N 40°40' W 074°03'1 1.1
2017-Jun-23 06:31N 40°40' W 074°03'1 2.3
2017-Jun-23 06:00N 40°40' W 074°04'4 7.3
2017-Jun-23 05:29N 40°39' W 074°09'3 5.3
2017-Jun-23 05:00N 40°38' W 074°12'1 2.3
2017-Jun-23 04:26N 40°36' W 074°12'0 0.1
2017-Jun-23 03:59N 40°36' W 074°12'2 3.6
2017-Jun-23 03:30N 40°38' W 074°12'4 7.3
2017-Jun-23 03:00N 40°39' W 074°07'1 2.8
2017-Jun-23 02:31N 40°39' W 074°05'0 0.0
2017-Jun-23 02:01N 40°39' W 074°05'0 0.0
2017-Jun-23 01:30N 40°39' W 074°05'0 0.0
2017-Jun-23 01:00N 40°39' W 074°05'2 4.4
2017-Jun-23 00:31N 40°39' W 074°03'2 4.1
2017-Jun-23 00:01N 40°40' W 074°00'0 0.0
2017-Jun-22 23:30N 40°40' W 074°00'1 1.2
2017-Jun-22 23:01N 40°41' W 073°60'0 1.0
2017-Jun-22 22:31N 40°40' W 073°60'1 1.5
2017-Jun-22 22:01N 40°40' W 074°01'0 0.5
2017-Jun-22 21:31N 40°40' W 074°01'2 3.9
2017-Jun-22 21:01N 40°40' W 074°03'2 3.2
2017-Jun-22 20:31N 40°39' W 074°05'0 0.1
2017-Jun-22 20:01N 40°39' W 074°05'0 0.7
2017-Jun-22 19:30N 40°39' W 074°06'0 0.5
2017-Jun-22 19:01N 40°39' W 074°05'2 3.5
2017-Jun-22 18:31N 40°40' W 074°03'0 0.0
2017-Jun-22 18:00N 40°40' W 074°03'2 3.6
2017-Jun-22 17:30N 40°40' W 074°01'1 1.9
2017-Jun-22 17:01N 40°40' W 073°60'2 3.1
2017-Jun-22 16:31N 40°40' W 074°02'1 1.8
2017-Jun-22 16:00N 40°40' W 074°03'0 0.2
2017-Jun-22 15:31N 40°40' W 074°03'0 1.0
2017-Jun-22 15:01N 40°40' W 074°03'3 2.6
2017-Jun-22 14:01N 40°40' W 073°60'2 3.5
2017-Jun-22 13:31N 40°40' W 074°02'0 0.4
2017-Jun-22 13:01N 40°40' W 074°02'2 3.8
2017-Jun-22 12:31N 40°40' W 073°60'0 0.2
2017-Jun-22 12:01N 40°40' W 073°60'0 0.6
2017-Jun-22 11:31N 40°41' W 073°60'0 0.4
2017-Jun-22 11:01N 40°40' W 073°60'0 0.0
2017-Jun-22 10:31N 40°40' W 073°60'0 0.9
2017-Jun-22 10:00N 40°40' W 074°00'2 4.8
2017-Jun-22 09:31N 40°40' W 074°03'0 0.3
2017-Jun-22 09:01N 40°40' W 074°03'2 3.4
2017-Jun-22 08:31N 40°40' W 074°01'1 1.9
2017-Jun-22 08:01N 40°40' W 073°60'1 2.2
2017-Jun-22 07:31N 40°41' W 074°01'1 1.2
2017-Jun-22 07:01N 40°41' W 074°00'1 3.0
2017-Jun-22 06:31N 40°40' W 074°02'1 2.2
2017-Jun-22 06:01N 40°40' W 074°03'0 0.4
2017-Jun-22 05:31N 40°40' W 074°03'1 1.1
2017-Jun-22 05:01N 40°40' W 074°03'2 4.6
2017-Jun-22 04:31N 40°41' W 074°00'2 4.0
2017-Jun-22 04:00N 40°41' W 074°03'1 1.8
2017-Jun-22 03:30N 40°40' W 074°03'0 0.3
2017-Jun-22 03:01N 40°40' W 074°03'3 5.6
2017-Jun-22 02:31N 40°42' W 074°02'3 6.1
2017-Jun-22 02:01N 40°45' W 074°01'3 5.2
2017-Jun-22 01:30N 40°48' W 073°59'2 4.3
2017-Jun-22 01:00N 40°50' W 073°58'2 4.0
2017-Jun-22 00:30N 40°51' W 073°57'1 2.9
2017-Jun-22 00:00N 40°53' W 073°56'1 2.9
2017-Jun-21 23:30N 40°54' W 073°55'2 3.0
2017-Jun-21 22:58N 40°56' W 073°55'1 3.2
2017-Jun-21 22:30N 40°57' W 073°54'1 0.1
2017-Jun-21 15:32N 40°58' W 073°54'0 5.0
2017-Jun-21 15:30N 40°57' W 073°54'2 4.8
2017-Jun-21 15:00N 40°55' W 073°55'5 5.3
2017-Jun-21 14:01N 40°50' W 073°57'3 5.7
2017-Jun-21 13:31N 40°48' W 073°59'3 6.1
2017-Jun-21 13:01N 40°45' W 074°01'3 6.5
2017-Jun-21 12:31N 40°42' W 074°02'2 3.4
2017-Jun-21 12:01N 40°40' W 074°03'1 2.5
2017-Jun-21 11:31N 40°40' W 074°01'2 3.0
2017-Jun-21 11:01N 40°41' W 074°00'1 2.5
2017-Jun-21 10:31N 40°40' W 074°01'0 0.8
2017-Jun-21 10:01N 40°40' W 074°01'1 2.5
2017-Jun-21 09:31N 40°40' W 074°03'3 5.1
2017-Jun-21 09:01N 40°41' W 074°00'2 3.7
2017-Jun-21 08:30N 40°40' W 074°02'4 8.0
2017-Jun-21 08:00N 40°39' W 074°07'4 7.6
2017-Jun-21 07:30N 40°38' W 074°12'2 0.5
2017-Jun-21 04:18N 40°36' W 074°12'0 0.9
2017-Jun-21 04:00N 40°36' W 074°12'1 2.8
2017-Jun-21 03:30N 40°37' W 074°12'2 4.9
2017-Jun-21 03:01N 40°39' W 074°10'2 4.1
2017-Jun-21 02:30N 40°39' W 074°07'2 3.9
2017-Jun-21 02:01N 40°39' W 074°04'1 2.0
2017-Jun-21 01:31N 40°40' W 074°03'2 3.8
2017-Jun-21 01:00N 40°40' W 074°01'1 2.8
2017-Jun-21 00:31N 40°40' W 074°03'1 1.0
2017-Jun-21 00:01N 40°40' W 074°03'1 2.0
2017-Jun-20 23:31N 40°39' W 074°04'4 8.6
2017-Jun-20 23:00N 40°39' W 074°10'3 2.7
2017-Jun-20 22:00N 40°37' W 074°12'3 6.4
2017-Jun-20 21:30N 40°39' W 074°09'4 8.5
2017-Jun-20 21:01N 40°40' W 074°04'1 2.5
2017-Jun-20 20:30N 40°41' W 074°02'1 1.1
2017-Jun-20 20:01N 40°40' W 074°02'1 1.1
2017-Jun-20 19:31N 40°40' W 074°02'1 1.6
2017-Jun-20 19:01N 40°40' W 074°01'1 1.9
2017-Jun-20 18:30N 40°40' W 074°00'2 5.0
2017-Jun-20 18:01N 40°40' W 074°03'0 0.2
2017-Jun-20 17:31N 40°40' W 074°03'3 5.4
2017-Jun-20 17:01N 40°42' W 074°02'3 6.7
2017-Jun-20 16:31N 40°46' W 074°01'3 6.7
2017-Jun-20 16:01N 40°48' W 073°59'3 6.7
2017-Jun-20 15:30N 40°52' W 073°57'3 6.3
2017-Jun-20 15:01N 40°54' W 073°55'3 0.4
2017-Jun-20 07:13N 40°57' W 073°54'2 5.9
2017-Jun-20 06:56N 40°55' W 073°55'2 5.5
2017-Jun-20 06:30N 40°53' W 073°56'2 5.0
2017-Jun-20 06:01N 40°51' W 073°57'2 4.5
2017-Jun-20 05:30N 40°49' W 073°58'2 3.9
2017-Jun-20 05:00N 40°47' W 073°59'2 3.6
2017-Jun-20 04:31N 40°46' W 074°01'2 4.0
2017-Jun-20 04:01N 40°44' W 074°01'2 3.8
2017-Jun-20 03:31N 40°42' W 074°02'2 3.3
2017-Jun-20 03:01N 40°40' W 074°03'2 3.3
2017-Jun-20 02:31N 40°41' W 074°01'1 1.5
2017-Jun-20 02:01N 40°41' W 074°00'1 1.6
2017-Jun-20 01:31N 40°41' W 074°01'1 2.6
2017-Jun-20 01:01N 40°40' W 074°03'1 1.3
2017-Jun-20 00:31N 40°40' W 074°03'0 0.1
2017-Jun-20 00:01N 40°40' W 074°03'3 5.3
2017-Jun-19 23:31N 40°41' W 074°01'0 0.4
2017-Jun-19 23:01N 40°41' W 074°00'0 0.0
2017-Jun-19 22:30N 40°41' W 074°00'0 0.0
2017-Jun-19 22:01N 40°41' W 074°00'0 0.0
2017-Jun-19 21:31N 40°41' W 074°00'1 3.0
2017-Jun-19 21:01N 40°40' W 074°01'1 1.1
2017-Jun-19 20:31N 40°40' W 074°02'1 1.9
2017-Jun-19 20:01N 40°40' W 074°03'1 2.9
2017-Jun-19 19:31N 40°40' W 074°01'1 3.0
2017-Jun-19 19:01N 40°40' W 074°03'1 1.0
2017-Jun-19 18:31N 40°40' W 074°03'3 5.5
2017-Jun-19 18:00N 40°39' W 074°06'3 5.0
2017-Jun-19 17:29N 40°39' W 074°09'3 6.2
2017-Jun-19 17:00N 40°37' W 074°12'0 0.7
2017-Jun-19 16:24N 40°36' W 074°12'1 1.5
2017-Jun-19 16:00N 40°37' W 074°12'3 5.4
2017-Jun-19 15:31N 40°39' W 074°10'3 5.9
2017-Jun-19 15:01N 40°39' W 074°06'2 4.7
2017-Jun-19 14:31N 40°40' W 074°03'3 2.6
2017-Jun-19 13:31N 40°40' W 074°00'0 0.3
2017-Jun-19 13:01N 40°40' W 074°00'0 0.0
2017-Jun-19 12:30N 40°40' W 074°00'0 0.0
2017-Jun-19 12:01N 40°40' W 074°00'0 0.0
2017-Jun-19 11:31N 40°40' W 074°00'0 0.0
2017-Jun-19 11:01N 40°40' W 074°00'0 0.0
2017-Jun-19 10:31N 40°40' W 074°00'0 0.0
2017-Jun-19 10:01N 40°40' W 074°00'0 0.0
2017-Jun-19 09:30N 40°40' W 074°00'0 0.0
2017-Jun-19 09:01N 40°40' W 074°00'0 0.0
2017-Jun-19 08:31N 40°40' W 074°00'0 0.0
2017-Jun-19 08:01N 40°40' W 074°00'0 0.0
2017-Jun-19 07:31N 40°40' W 074°00'0 0.0
2017-Jun-19 07:01N 40°40' W 074°00'0 0.0
2017-Jun-19 06:31N 40°40' W 074°00'0 0.0
2017-Jun-19 06:01N 40°40' W 074°00'0 0.0
2017-Jun-19 05:31N 40°40' W 074°00'0 0.0
2017-Jun-19 05:01N 40°40' W 074°00'0 0.0
2017-Jun-19 04:31N 40°40' W 074°00'0 0.0
2017-Jun-19 04:01N 40°40' W 074°00'0 0.0
2017-Jun-19 03:31N 40°40' W 074°00'0 0.0
2017-Jun-19 03:01N 40°40' W 074°00'0 0.0
2017-Jun-19 02:31N 40°40' W 074°00'0 0.0
2017-Jun-19 02:01N 40°40' W 074°00'0 0.0
2017-Jun-19 01:31N 40°40' W 074°00'0 0.0
2017-Jun-19 01:00N 40°40' W 074°00'0 0.0
2017-Jun-19 00:31N 40°40' W 074°00'0 0.0
2017-Jun-19 00:01N 40°40' W 074°00'0 0.0
2017-Jun-18 23:31N 40°40' W 074°00'0 0.0
2017-Jun-18 23:00N 40°40' W 074°00'0 0.0
2017-Jun-18 22:31N 40°40' W 074°00'0 0.0
2017-Jun-18 22:00N 40°40' W 074°00'0 0.0
2017-Jun-18 21:30N 40°40' W 074°00'0 0.0
2017-Jun-18 21:00N 40°40' W 074°00'0 0.0
2017-Jun-18 20:31N 40°40' W 074°00'0 0.0
2017-Jun-18 20:01N 40°40' W 074°00'0 0.0
2017-Jun-18 19:31N 40°40' W 074°00'0 0.0
2017-Jun-18 19:01N 40°40' W 074°00'0 0.0
2017-Jun-18 18:31N 40°40' W 074°00'0 0.0
2017-Jun-18 18:01N 40°40' W 074°00'0 0.0
2017-Jun-18 17:31N 40°40' W 074°00'0 0.0
2017-Jun-18 17:01N 40°40' W 074°00'0 0.0
2017-Jun-18 16:31N 40°40' W 074°00'0 0.0
2017-Jun-18 16:01N 40°40' W 074°00'0 0.3
2017-Jun-18 15:31N 40°40' W 074°00'0 0.0
2017-Jun-18 15:01N 40°40' W 074°00'0 0.0
2017-Jun-18 14:01N 40°40' W 074°00'0 0.0
2017-Jun-18 13:31N 40°40' W 074°00'0 0.0
2017-Jun-18 13:01N 40°40' W 074°00'0 0.0
2017-Jun-18 12:31N 40°40' W 074°00'0 0.0
2017-Jun-18 12:01N 40°40' W 074°00'0 0.0
2017-Jun-18 11:31N 40°40' W 074°00'0 0.0
2017-Jun-18 11:01N 40°40' W 074°00'0 0.0
2017-Jun-18 10:31N 40°40' W 074°00'0 0.0
2017-Jun-18 10:00N 40°40' W 074°00'0 0.0
2017-Jun-18 09:30N 40°40' W 074°00'0 0.0
2017-Jun-18 09:01N 40°40' W 074°00'0 0.0
2017-Jun-18 08:31N 40°40' W 074°00'0 0.0
2017-Jun-18 08:01N 40°40' W 074°00'0 0.0
2017-Jun-18 07:31N 40°40' W 074°00'0 0.0
2017-Jun-18 07:01N 40°40' W 074°00'0 0.0
2017-Jun-18 06:31N 40°40' W 074°00'0 0.0
2017-Jun-18 06:00N 40°40' W 074°00'0 0.0
2017-Jun-18 05:31N 40°40' W 074°00'0 0.0
2017-Jun-18 05:01N 40°40' W 074°00'0 0.0
2017-Jun-18 04:31N 40°40' W 074°00'0 0.0
2017-Jun-18 04:01N 40°40' W 074°00'0 0.0
2017-Jun-18 03:31N 40°40' W 074°00'0 0.0
2017-Jun-18 03:01N 40°40' W 074°00'0 0.0
2017-Jun-18 02:30N 40°40' W 074°00'0 0.0
2017-Jun-18 02:01N 40°40' W 074°00'0 0.0
2017-Jun-18 01:31N 40°40' W 074°00'0 0.0
2017-Jun-18 01:01N 40°40' W 074°00'0 0.0
2017-Jun-18 00:31N 40°40' W 074°00'0 0.0
2017-Jun-18 00:01N 40°40' W 074°00'0 0.0
2017-Jun-17 23:31N 40°40' W 074°00'0 0.0
2017-Jun-17 23:01N 40°40' W 074°00'0 0.0
2017-Jun-17 22:31N 40°40' W 074°00'0 0.0
2017-Jun-17 22:01N 40°40' W 074°00'0 0.0
2017-Jun-17 21:31N 40°40' W 074°00'0 0.0
2017-Jun-17 21:01N 40°40' W 074°00'0 0.0
2017-Jun-17 20:31N 40°40' W 074°00'0 0.0
2017-Jun-17 20:01N 40°40' W 074°00'0 0.0
2017-Jun-17 19:31N 40°40' W 074°00'0 0.0
2017-Jun-17 19:01N 40°40' W 074°00'0 0.0
2017-Jun-17 18:31N 40°40' W 074°00'0 0.0
2017-Jun-17 18:01N 40°40' W 074°00'0 0.0
2017-Jun-17 17:31N 40°40' W 074°00'0 0.0
2017-Jun-17 17:00N 40°40' W 074°00'0 0.0
2017-Jun-17 16:31N 40°40' W 074°00'0 0.0
2017-Jun-17 16:01N 40°40' W 074°00'0 0.0
2017-Jun-17 15:31N 40°40' W 074°00'0 0.0
2017-Jun-17 15:01N 40°40' W 074°00'0 0.0
2017-Jun-17 14:31N 40°40' W 074°00'0 0.0
2017-Jun-17 13:31N 40°40' W 074°00'0 0.0
2017-Jun-17 13:01N 40°40' W 074°00'1 1.9
2017-Jun-17 12:31N 40°40' W 074°01'5 9.1
2017-Jun-17 12:01N 40°45' W 074°01'2 3.3
2017-Jun-17 11:30N 40°46' W 073°60'0 0.3
2017-Jun-17 11:01N 40°46' W 074°00'0 0.2
2017-Jun-17 10:31N 40°46' W 074°00'2 4.0
2017-Jun-17 10:01N 40°44' W 074°01'3 5.8
2017-Jun-17 09:31N 40°41' W 074°02'2 3.5
2017-Jun-17 09:01N 40°40' W 074°00'0 0.1
2017-Jun-17 08:31N 40°40' W 074°00'0 0.0
2017-Jun-17 08:01N 40°40' W 074°00'0 0.0
2017-Jun-17 07:31N 40°40' W 074°00'0 0.0
2017-Jun-17 07:01N 40°40' W 074°00'0 0.0
2017-Jun-17 06:31N 40°40' W 074°00'0 0.0
2017-Jun-17 06:00N 40°40' W 074°00'0 0.0
2017-Jun-17 05:31N 40°40' W 074°00'0 0.0
2017-Jun-17 05:01N 40°40' W 074°00'0 0.0
2017-Jun-17 04:31N 40°40' W 074°00'0 0.0
2017-Jun-17 04:01N 40°40' W 074°00'0 0.0
2017-Jun-17 03:31N 40°40' W 074°00'0 0.0
2017-Jun-17 03:00N 40°40' W 074°00'0 0.0
2017-Jun-17 02:31N 40°40' W 074°00'0 0.0
2017-Jun-17 02:01N 40°40' W 074°00'0 0.0
2017-Jun-17 01:30N 40°40' W 074°00'0 0.0
2017-Jun-17 01:01N 40°40' W 074°00'0 0.0
2017-Jun-17 00:31N 40°40' W 074°00'0 0.0
2017-Jun-17 00:01N 40°40' W 074°00'0 0.0
2017-Jun-16 23:31N 40°40' W 074°00'0 0.0
2017-Jun-16 23:01N 40°40' W 074°00'0 0.0
2017-Jun-16 22:31N 40°40' W 074°00'0 0.0
2017-Jun-16 22:01N 40°40' W 074°00'0 0.0
2017-Jun-16 21:31N 40°40' W 074°00'0 0.0
2017-Jun-16 21:01N 40°40' W 074°00'0 0.0
2017-Jun-16 20:31N 40°40' W 074°00'0 0.0
2017-Jun-16 20:01N 40°40' W 074°00'0 0.0
2017-Jun-16 19:31N 40°40' W 074°00'0 0.0
2017-Jun-16 19:01N 40°40' W 074°00'0 0.0
2017-Jun-16 18:30N 40°40' W 074°00'0 0.0
2017-Jun-16 18:01N 40°40' W 074°00'0 0.2
2017-Jun-16 17:30N 40°40' W 074°00'0 0.0
2017-Jun-16 17:01N 40°40' W 074°00'0 0.0
2017-Jun-16 16:31N 40°40' W 074°00'2 4.2
2017-Jun-16 16:01N 40°42' W 074°00'3 5.4
2017-Jun-16 15:31N 40°44' W 073°58'2 2.9
2017-Jun-16 15:00N 40°46' W 073°57'0 0.1
2017-Jun-16 14:31N 40°46' W 073°57'0 0.1
2017-Jun-16 13:30N 40°46' W 073°57'0 0.0
2017-Jun-16 13:00N 40°46' W 073°57'0 0.0
2017-Jun-16 12:30N 40°46' W 073°57'0 0.0
2017-Jun-16 12:01N 40°46' W 073°57'3 6.1
2017-Jun-16 11:31N 40°43' W 073°58'3 5.5
2017-Jun-16 11:01N 40°41' W 074°01'1 2.2
2017-Jun-16 10:31N 40°40' W 074°00'0 0.0
2017-Jun-16 10:01N 40°40' W 074°00'0 0.0
2017-Jun-16 09:31N 40°40' W 074°00'0 0.0
2017-Jun-16 09:01N 40°40' W 074°00'0 0.0
2017-Jun-16 08:30N 40°40' W 074°00'0 0.0
2017-Jun-16 08:01N 40°40' W 074°00'0 0.0
2017-Jun-16 07:31N 40°40' W 074°00'0 0.0
2017-Jun-16 07:01N 40°40' W 074°00'0 0.0
2017-Jun-16 06:31N 40°40' W 074°00'0 0.0
2017-Jun-16 06:01N 40°40' W 074°00'0 0.0
2017-Jun-16 05:31N 40°40' W 074°00'0 0.0
2017-Jun-16 05:01N 40°40' W 074°00'0 0.0
2017-Jun-16 04:31N 40°40' W 074°00'0 0.0
2017-Jun-16 04:01N 40°40' W 074°00'0 0.0
2017-Jun-16 03:31N 40°40' W 074°00'0 0.0
2017-Jun-16 03:01N 40°40' W 074°00'0 0.0
2017-Jun-16 02:31N 40°40' W 074°00'0 0.0
2017-Jun-16 02:01N 40°40' W 074°00'0 0.0
2017-Jun-16 01:31N 40°40' W 074°00'0 0.0
2017-Jun-16 01:01N 40°40' W 074°00'0 0.0
2017-Jun-16 00:31N 40°40' W 074°00'0 0.0
2017-Jun-16 00:01N 40°40' W 074°00'0 0.0
2017-Jun-15 23:31N 40°40' W 074°00'0 0.0
2017-Jun-15 23:01N 40°40' W 074°00'0 0.0
2017-Jun-15 22:31N 40°40' W 074°00'0 0.0
2017-Jun-15 22:00N 40°40' W 074°00'0 0.0
2017-Jun-15 21:31N 40°40' W 074°00'0 0.0
2017-Jun-15 21:01N 40°40' W 074°00'0 0.0
2017-Jun-15 20:31N 40°40' W 074°00'0 0.0
2017-Jun-15 20:01N 40°40' W 074°00'0 0.0
2017-Jun-15 19:31N 40°40' W 074°00'0 0.0
2017-Jun-15 19:01N 40°40' W 074°00'0 0.0
2017-Jun-15 18:31N 40°40' W 074°00'0 0.0
2017-Jun-15 18:00N 40°40' W 074°00'0 0.0
2017-Jun-15 17:31N 40°40' W 074°00'0 0.0
2017-Jun-15 17:01N 40°40' W 074°00'0 0.0
2017-Jun-15 16:31N 40°40' W 074°00'0 0.0
2017-Jun-15 16:00N 40°40' W 074°00'0 0.0
2017-Jun-15 15:30N 40°40' W 074°00'0 0.0
2017-Jun-15 15:01N 40°40' W 074°00'0 0.0
2017-Jun-15 14:00N 40°40' W 074°00'0 0.0
2017-Jun-15 13:30N 40°40' W 074°00'0 0.0
2017-Jun-15 13:00N 40°40' W 074°00'0 0.0
2017-Jun-15 12:31N 40°40' W 074°00'0 0.7
2017-Jun-15 12:01N 40°40' W 074°00'1 2.2
2017-Jun-15 11:30N 40°41' W 074°01'0 0.9
2017-Jun-15 11:00N 40°41' W 074°01'1 2.4
2017-Jun-15 10:30N 40°40' W 074°00'0 0.0
2017-Jun-15 10:00N 40°40' W 074°00'0 0.0
2017-Jun-15 09:30N 40°40' W 074°00'0 0.0
2017-Jun-15 09:00N 40°40' W 074°00'0 0.0
2017-Jun-15 08:30N 40°40' W 074°00'0 0.0
2017-Jun-15 07:43N 40°40' W 074°00'0 0.1
2017-Jun-15 07:30N 40°40' W 073°60'0 0.0
2017-Jun-15 07:00N 40°40' W 074°00'0 0.0
2017-Jun-15 06:30N 40°40' W 074°00'0 0.0
2017-Jun-15 06:01N 40°40' W 074°00'0 0.0
2017-Jun-15 05:30N 40°40' W 074°00'0 0.0
2017-Jun-15 05:01N 40°40' W 074°00'0 0.0
2017-Jun-15 04:30N 40°40' W 074°00'0 0.0
2017-Jun-15 04:01N 40°40' W 074°00'0 0.0
2017-Jun-15 03:26N 40°40' W 074°00'0 0.0
2017-Jun-15 03:00N 40°40' W 074°00'0 0.0
2017-Jun-15 02:30N 40°40' W 074°00'0 0.0
2017-Jun-15 02:00N 40°40' W 074°00'0 0.0
2017-Jun-15 01:30N 40°40' W 074°00'0 0.0
2017-Jun-15 01:01N 40°40' W 074°00'0 0.0
2017-Jun-15 00:30N 40°40' W 074°00'0 0.0
2017-Jun-15 00:01N 40°40' W 074°00'0 0.0
2017-Jun-14 23:31N 40°40' W 074°00'0 0.0
2017-Jun-14 22:57N 40°40' W 074°00'0 0.0
2017-Jun-14 22:30N 40°40' W 074°00'1 1.4
2017-Jun-14 22:00N 40°40' W 074°01'4 7.5
2017-Jun-14 21:31N 40°39' W 074°06'1 2.6
2017-Jun-14 21:01N 40°38' W 074°07'0 0.0
2017-Jun-14 20:30N 40°38' W 074°07'0 0.0
2017-Jun-14 20:00N 40°38' W 074°07'0 0.0
2017-Jun-14 19:30N 40°38' W 074°07'0 0.0
2017-Jun-14 18:58N 40°38' W 074°07'0 0.0
2017-Jun-14 18:30N 40°38' W 074°07'  

Dump ship's entire track history